Time;durP1;ratioP1;P1;durP2;ratioP2;P2;SDS_P1;SDS_P2;PMS_P1;PMS_P2;Temp;Humidity;BMP_temperature;BMP_pressure;BME280_temperature;BME280_humidity;BME280_pressure;Samples;Min_cycle;Max_cycle;Signal;HPM_P1;HPM_P2
2021/05/21 00:01:47;;;;;;;3.02;1.50;;;;;;;10.13;88.02;97625.26;1629955;87;21150;-64
2021/05/21 00:04:14;;;;;;;1.85;1.10;;;;;;;10.08;88.51;97621.80;1630058;87;21067;-64
2021/05/21 00:06:41;;;;;;;1.25;1.07;;;;;;;10.06;88.57;97619.03;1629962;87;21071;-65
2021/05/21 00:09:09;;;;;;;1.55;1.00;;;;;;;10.08;88.35;97624.40;1629813;87;21618;-62
2021/05/21 00:11:36;;;;;;;1.85;1.22;;;;;;;10.10;88.19;97620.38;1629990;87;21111;-62
2021/05/21 00:14:03;;;;;;;1.80;1.00;;;;;;;10.06;88.11;97625.52;1630003;87;21495;-62
2021/05/21 00:16:30;;;;;;;1.90;1.40;;;;;;;10.09;87.59;97620.03;1630111;87;21082;-63
2021/05/21 00:18:57;;;;;;;1.82;1.30;;;;;;;10.07;87.64;97625.39;1630044;87;21088;-62
2021/05/21 00:21:24;;;;;;;2.05;1.20;;;;;;;10.09;87.42;97627.34;1629995;87;21071;-62
2021/05/21 00:23:51;;;;;;;1.80;1.20;;;;;;;10.12;87.30;97628.33;1630016;87;21063;-63
2021/05/21 00:26:18;;;;;;;2.27;1.55;;;;;;;10.15;86.97;97626.80;1629927;87;21059;-62
2021/05/21 00:28:47;;;;;;;2.40;1.32;;;;;;;10.17;87.14;97623.55;1629965;87;21087;-62
2021/05/21 00:31:14;;;;;;;2.15;1.00;;;;;;;10.19;86.80;97628.61;1655553;85;21071;-62
2021/05/21 00:33:41;;;;;;;1.77;1.50;;;;;;;10.21;86.94;97627.48;1630236;87;21111;-62
2021/05/21 00:36:08;;;;;;;1.98;1.22;;;;;;;10.25;86.94;97623.63;1629856;87;21083;-64
2021/05/21 00:38:35;;;;;;;2.35;1.40;;;;;;;10.26;86.76;97628.34;1629923;87;21586;-62
2021/05/21 00:41:04;;;;;;;2.37;1.50;;;;;;;10.26;86.69;97627.87;1629911;87;21583;-64
2021/05/21 00:43:31;;;;;;;3.40;1.27;;;;;;;10.28;86.56;97627.22;1629803;87;21091;-64
2021/05/21 00:45:59;;;;;;;4.03;1.47;;;;;;;10.32;86.04;97629.85;1630033;87;21087;-63
2021/05/21 00:48:26;;;;;;;1.30;0.98;;;;;;;10.31;85.99;97630.81;1629725;87;21099;-64
2021/05/21 00:50:53;;;;;;;1.72;1.12;;;;;;;10.31;86.19;97639.11;1629853;87;21098;-64
2021/05/21 00:53:29;;;;;;;2.12;1.12;;;;;;;10.33;85.94;97639.76;1629860;87;21059;-64
2021/05/21 00:56:00;;;;;;;1.80;1.35;;;;;;;10.35;85.92;97644.33;1629600;87;21560;-65
2021/05/21 00:58:28;;;;;;;1.40;1.17;;;;;;;10.35;85.74;97646.42;1629028;87;21567;-64
2021/05/21 01:00:55;;;;;;;2.47;1.37;;;;;;;10.38;85.63;97648.74;1629866;87;21059;-63
2021/05/21 01:03:22;;;;;;;2.08;1.15;;;;;;;10.35;86.19;97645.63;1629793;87;21111;-64
2021/05/21 01:05:50;;;;;;;1.87;1.32;;;;;;;10.36;86.29;97649.84;1629979;87;21170;-64
2021/05/21 01:08:18;;;;;;;1.55;1.00;;;;;;;10.35;86.31;97654.72;1629651;87;21154;-64
2021/05/21 01:10:46;;;;;;;1.72;1.30;;;;;;;10.34;86.48;97654.37;1629900;87;21063;-65
2021/05/21 01:13:14;;;;;;;1.98;1.10;;;;;;;10.33;86.42;97648.36;1629982;87;21083;-64
2021/05/21 01:15:43;;;;;;;3.65;1.72;;;;;;;10.35;86.07;97658.61;1629996;87;21139;-64
2021/05/21 01:18:11;;;;;;;3.80;1.55;;;;;;;10.35;86.22;97656.80;1629891;87;21111;-64
2021/05/21 01:20:39;;;;;;;2.55;1.52;;;;;;;10.31;86.32;97659.36;1629884;87;21103;-64
2021/05/21 01:23:07;;;;;;;2.85;1.50;;;;;;;10.30;86.30;97654.34;1629963;87;21111;-64
2021/05/21 01:25:36;;;;;;;1.52;1.05;;;;;;;10.29;86.31;97656.59;1629858;87;21610;-64
2021/05/21 01:28:05;;;;;;;1.22;0.95;;;;;;;10.34;85.95;97660.38;1629903;87;21063;-64
2021/05/21 01:30:32;;;;;;;1.82;1.22;;;;;;;10.36;85.82;97657.14;1629826;87;21087;-64
2021/05/21 01:33:10;;;;;;;1.95;1.12;;;;;;;10.40;85.68;97653.77;1629847;87;21154;-64
2021/05/21 01:35:38;;;;;;;2.05;1.57;;;;;;;10.44;85.43;97660.29;1626981;87;21083;-65
2021/05/21 01:38:05;;;;;;;1.70;1.35;;;;;;;10.45;85.15;97664.53;1629874;87;21508;-64
2021/05/21 01:40:35;;;;;;;1.55;1.30;;;;;;;10.44;85.03;97665.00;1629746;87;21500;-63
2021/05/21 01:43:03;;;;;;;1.82;1.35;;;;;;;10.48;84.80;97664.22;1630052;87;21059;-62
2021/05/21 01:45:31;;;;;;;2.10;1.25;;;;;;;10.47;84.73;97662.58;1629844;87;21091;-64
2021/05/21 01:47:58;;;;;;;2.33;0.95;;;;;;;10.48;84.61;97659.85;1630009;87;21055;-64
2021/05/21 01:50:26;;;;;;;1.25;1.00;;;;;;;10.48;84.71;97659.85;1629982;87;21067;-62
2021/05/21 01:52:53;;;;;;;1.25;1.00;;;;;;;10.48;84.71;97672.02;1629945;87;21686;-65
2021/05/21 01:55:21;;;;;;;2.10;1.50;;;;;;;10.50;84.74;97670.09;1629958;87;21627;-63
2021/05/21 01:57:48;;;;;;;1.57;1.00;;;;;;;10.51;84.65;97672.19;1609579;87;21125;-62
2021/05/21 02:00:16;;;;;;;2.37;1.30;;;;;;;10.51;84.80;97673.00;1649270;86;21095;-64
2021/05/21 02:02:43;;;;;;;2.30;1.22;;;;;;;10.51;84.82;97666.99;1656075;86;21106;-63
2021/05/21 02:05:11;;;;;;;1.37;0.98;;;;;;;10.50;84.77;97673.17;1649490;86;21055;-65
2021/05/21 02:07:38;;;;;;;1.52;1.00;;;;;;;10.48;84.86;97672.02;1649189;86;21094;-63
2021/05/21 02:10:12;;;;;;;3.47;0.85;;;;;;;10.48;84.67;97678.02;1649129;85;21201;-62
2021/05/21 02:12:44;;;;;;;1.12;1.00;;;;;;;10.41;84.83;97676.17;1649078;87;21102;-62
2021/05/21 02:15:14;;;;;;;4.50;1.40;;;;;;;10.42;84.86;97681.23;1649199;87;21044;-62
2021/05/21 02:17:41;;;;;;;3.55;1.25;;;;;;;10.42;84.86;97677.81;1649017;86;21082;-63
2021/05/21 02:20:13;;;;;;;3.22;1.15;;;;;;;10.39;85.21;97684.58;1649157;87;21075;-63
2021/05/21 02:22:40;;;;;;;1.55;1.35;;;;;;;10.36;85.01;97690.06;1649186;85;21169;-63
2021/05/21 02:25:14;;;;;;;2.12;1.35;;;;;;;10.32;85.25;97692.63;1649111;86;21663;-62
2021/05/21 02:27:41;;;;;;;1.87;0.93;;;;;;;10.30;85.26;97689.38;1649225;86;21165;-62
2021/05/21 02:30:10;;;;;;;2.37;0.95;;;;;;;10.31;85.23;97692.31;1649097;87;21166;-62
2021/05/21 02:32:40;;;;;;;2.35;1.17;;;;;;;10.31;85.21;97701.39;1630799;87;21057;-62
2021/05/21 02:35:10;;;;;;;3.08;1.42;;;;;;;10.29;85.35;97703.30;1648813;85;21527;-63
2021/05/21 02:37:37;;;;;;;1.75;1.42;;;;;;;10.30;85.26;97697.98;1649217;86;21138;-63
2021/05/21 02:40:06;;;;;;;1.82;1.40;;;;;;;10.28;85.58;97705.08;1649394;87;21062;-63
2021/05/21 02:42:34;;;;;;;1.10;1.00;;;;;;;10.27;85.45;97707.33;1649138;86;21749;-64
2021/05/21 02:45:01;;;;;;;2.17;1.30;;;;;;;10.28;85.29;97707.67;1649191;86;21631;-65
2021/05/21 02:47:27;;;;;;;0.80;0.80;;;;;;;10.29;85.42;97707.20;1649091;86;21111;-64
2021/05/21 02:49:54;;;;;;;2.75;1.40;;;;;;;10.28;85.25;97713.34;1649008;87;21117;-64
2021/05/21 02:52:22;;;;;;;1.02;0.75;;;;;;;10.28;85.18;97718.05;1648962;86;21079;-64
2021/05/21 02:54:49;;;;;;;1.42;1.15;;;;;;;10.28;84.97;97716.76;1649116;87;21091;-64
2021/05/21 02:57:16;;;;;;;1.92;1.25;;;;;;;10.28;85.08;97716.76;1650643;85;21055;-64
2021/05/21 02:59:43;;;;;;;1.45;1.00;;;;;;;10.30;85.04;97723.11;1653130;86;21118;-65
2021/05/21 03:02:10;;;;;;;1.75;0.98;;;;;;;10.30;85.04;97721.81;1653488;86;21098;-64
2021/05/21 03:04:37;;;;;;;2.17;1.30;;;;;;;10.30;84.90;97727.00;1653291;86;21094;-64
2021/05/21 03:07:06;;;;;;;1.75;1.20;;;;;;;10.30;85.21;97734.79;1676233;82;21135;-62
2021/05/21 03:09:32;;;;;;;2.95;1.27;;;;;;;10.32;84.99;97732.38;1675506;85;21595;-64
2021/05/21 03:11:59;;;;;;;1.98;1.40;;;;;;;10.34;85.10;97741.33;1662833;85;21739;-61
2021/05/21 03:14:26;;;;;;;1.55;1.07;;;;;;;10.30;85.13;97734.79;1664399;85;21119;-64
2021/05/21 03:16:53;;;;;;;1.37;1.00;;;;;;;10.32;84.96;97737.56;1662760;86;21067;-62
2021/05/21 03:19:20;;;;;;;4.00;1.20;;;;;;;10.31;85.13;97742.92;1661649;86;21076;-63
2021/05/21 03:21:47;;;;;;;1.62;1.17;;;;;;;10.35;84.96;97741.67;1656251;86;21537;-63
2021/05/21 03:24:14;;;;;;;2.65;1.50;;;;;;;10.37;84.88;97738.42;1649109;85;21552;-64
2021/05/21 03:26:41;;;;;;;2.33;1.55;;;;;;;10.35;84.89;97736.48;1647915;87;21103;-62
2021/05/21 03:29:08;;;;;;;3.17;1.80;;;;;;;10.33;84.82;97739.20;1648050;86;21154;-64
2021/05/21 03:31:34;;;;;;;2.42;1.40;;;;;;;10.30;85.28;97742.58;1647849;86;21139;-62
2021/05/21 03:34:03;;;;;;;2.17;1.27;;;;;;;10.33;85.07;97741.80;1649264;85;21095;-63
2021/05/21 03:36:30;;;;;;;3.30;1.45;;;;;;;10.37;85.02;97744.44;1647943;86;21557;-63
2021/05/21 03:38:57;;;;;;;2.77;1.40;;;;;;;10.41;84.88;97748.38;1647849;87;21095;-65
2021/05/21 03:41:24;;;;;;;2.90;1.75;;;;;;;10.42;85.04;97760.41;1648488;85;21151;-63
2021/05/21 03:43:51;;;;;;;2.17;1.70;;;;;;;10.44;84.88;97758.46;1647973;86;21713;-63
2021/05/21 03:46:18;;;;;;;12.50;7.83;;;;;;;10.42;84.99;97750.02;1647989;86;21119;-64
2021/05/21 03:48:44;;;;;;;11.35;6.60;;;;;;;10.45;85.18;97757.98;1647972;86;21100;-64
2021/05/21 03:51:11;;;;;;;31.60;14.63;;;;;;;10.48;84.96;97758.50;1647964;87;21103;-63
2021/05/21 03:53:38;;;;;;;6.67;3.50;;;;;;;10.50;84.93;97760.97;1647858;86;21084;-64
2021/05/21 03:56:06;;;;;;;7.33;3.98;;;;;;;10.52;85.01;97763.39;1647911;86;21089;-64
2021/05/21 03:58:33;;;;;;;17.87;8.68;;;;;;;10.51;84.75;97765.17;1647945;86;21482;-64
2021/05/21 04:01:01;;;;;;;53.17;24.52;;;;;;;10.59;84.70;97769.63;1647750;86;22333;-64
2021/05/21 04:03:29;;;;;;;39.53;19.50;;;;;;;10.65;84.75;97770.35;1647839;87;21049;-64
2021/05/21 04:05:56;;;;;;;10.90;5.37;;;;;;;10.72;84.67;97780.48;1658545;82;21111;-64
2021/05/21 04:08:23;;;;;;;3.45;2.67;;;;;;;10.76;84.43;97780.05;1681205;85;21079;-62
2021/05/21 04:10:50;;;;;;;4.08;1.52;;;;;;;10.81;84.20;97782.20;1681167;85;21183;-62
2021/05/21 04:13:17;;;;;;;1.90;1.45;;;;;;;10.85;84.00;97783.06;1681051;85;21112;-64
2021/05/21 04:15:44;;;;;;;2.67;1.55;;;;;;;10.88;83.68;97786.66;1680973;85;21119;-64
2021/05/21 04:18:11;;;;;;;3.02;1.95;;;;;;;10.90;83.59;97786.00;1680993;85;21052;-64
2021/05/21 04:20:38;;;;;;;2.37;1.40;;;;;;;10.90;83.40;97793.80;1680990;85;21631;-64
2021/05/21 04:23:05;;;;;;;1.80;1.42;;;;;;;10.92;83.31;97797.08;1681087;85;21071;-64
2021/05/21 04:25:32;;;;;;;1.20;1.07;;;;;;;10.92;83.33;97792.36;1680157;85;21116;-63
2021/05/21 04:27:59;;;;;;;2.30;1.32;;;;;;;10.93;83.05;97798.69;1680755;85;21694;-64
2021/05/21 04:30:26;;;;;;;2.90;1.30;;;;;;;10.97;83.08;97801.02;1680885;85;21100;-64
2021/05/21 04:32:53;;;;;;;1.80;1.57;;;;;;;10.95;82.68;97803.27;1681081;85;21079;-64
2021/05/21 04:35:21;;;;;;;4.37;1.22;;;;;;;10.98;82.55;97800.03;1680975;85;21600;-64
2021/05/21 04:37:48;;;;;;;1.60;1.25;;;;;;;11.00;82.74;97801.53;1695219;84;21187;-64
2021/05/21 04:40:15;;;;;;;1.42;1.10;;;;;;;11.03;82.71;97801.70;1676288;84;21104;-64
2021/05/21 04:42:44;;;;;;;2.58;1.35;;;;;;;11.03;82.32;97805.13;1676392;85;21076;-64
2021/05/21 04:45:12;;;;;;;6.58;1.80;;;;;;;11.09;82.00;97810.22;1676664;84;21072;-64
2021/05/21 04:47:39;;;;;;;2.87;1.50;;;;;;;11.14;82.15;97807.48;1676652;84;21079;-64
2021/05/21 04:50:08;;;;;;;2.40;1.67;;;;;;;11.14;82.16;97806.67;1676253;84;21128;-64
2021/05/21 04:52:35;;;;;;;3.35;1.65;;;;;;;11.18;81.81;97806.70;1676278;84;21155;-64
2021/05/21 04:55:03;;;;;;;3.37;1.60;;;;;;;11.15;81.63;97794.02;1676494;85;21226;-68
2021/05/21 04:57:29;;;;;;;4.72;1.57;;;;;;;11.31;83.08;97811.05;1676578;85;21080;-65
2021/05/21 04:59:56;;;;;;;2.27;1.60;;;;;;;11.48;82.61;97808.88;1676569;85;21052;-64
2021/05/21 05:02:23;;;;;;;3.05;1.77;;;;;;;11.62;81.86;97808.83;1676586;84;22952;-65
2021/05/21 05:04:50;;;;;;;3.22;1.72;;;;;;;11.66;79.50;97807.08;1676481;85;21639;-65
2021/05/21 05:07:17;;;;;;;1.60;1.40;;;;;;;11.78;79.79;97812.38;1683389;85;21179;-64
2021/05/21 05:09:44;;;;;;;2.95;1.85;;;;;;;11.87;78.99;97810.14;1682692;85;21056;-65
2021/05/21 05:12:12;;;;;;;2.27;1.30;;;;;;;12.05;79.54;97817.08;1683551;85;21288;-63
2021/05/21 05:14:39;;;;;;;5.17;1.87;;;;;;;12.18;78.90;97818.75;1688550;84;21072;-67
2021/05/21 05:17:05;;;;;;;2.05;1.30;;;;;;;12.33;79.56;97821.91;1685036;85;21113;-65
2021/05/21 05:19:32;;;;;;;1.35;1.05;;;;;;;12.48;77.78;97816.94;1684759;84;21057;-65
2021/05/21 05:22:00;;;;;;;5.75;1.02;;;;;;;12.59;77.78;97816.64;1684964;85;21056;-65
2021/05/21 05:24:28;;;;;;;2.33;0.90;;;;;;;12.76;76.88;97817.50;1684743;85;21521;-65
2021/05/21 05:26:55;;;;;;;1.70;1.05;;;;;;;12.88;75.45;97828.44;1684670;84;21057;-69
2021/05/21 05:29:21;;;;;;;1.05;0.80;;;;;;;12.88;73.42;97818.02;1684013;84;21081;-68
2021/05/21 05:31:48;;;;;;;1.05;0.68;;;;;;;13.05;74.63;97817.04;1685157;85;21061;-69
2021/05/21 05:34:15;;;;;;;1.05;0.70;;;;;;;13.18;72.33;97816.94;1683785;85;21045;-69
2021/05/21 05:36:42;;;;;;;0.62;0.57;;;;;;;13.36;72.32;97821.97;1685272;84;21073;-70
2021/05/21 05:39:10;;;;;;;2.60;1.10;;;;;;;13.39;70.56;97817.73;1684582;85;21061;-68
2021/05/21 05:41:37;;;;;;;1.20;1.00;;;;;;;13.47;71.97;97812.51;1684753;85;21033;-65
2021/05/21 05:44:05;;;;;;;1.27;1.17;;;;;;;13.63;73.38;97812.98;1649381;85;21685;-65
2021/05/21 05:46:32;;;;;;;1.15;0.80;;;;;;;13.66;70.92;97815.25;1700300;83;21030;-65
2021/05/21 05:48:59;;;;;;;1.98;1.47;;;;;;;13.72;71.16;97819.83;1702806;83;21089;-65
2021/05/21 05:51:26;;;;;;;1.60;1.50;;;;;;;13.80;72.03;97814.59;1704899;84;21105;-70
2021/05/21 05:53:52;;;;;;;2.62;1.30;;;;;;;13.72;70.27;97820.65;1705196;84;21066;-69
2021/05/21 05:56:19;;;;;;;2.55;1.27;;;;;;;13.90;71.27;97813.91;1705314;84;21152;-69
2021/05/21 05:58:46;;;;;;;3.40;1.62;;;;;;;14.02;70.75;97815.67;1705443;84;21149;-69
2021/05/21 06:01:13;;;;;;;2.83;1.37;;;;;;;14.00;68.00;97817.66;1705464;84;21109;-70
2021/05/21 06:03:40;;;;;;;2.92;1.27;;;;;;;14.12;71.19;97816.31;1705531;84;21117;-69
2021/05/21 06:06:07;;;;;;;2.55;1.30;;;;;;;14.22;69.60;97816.92;1705387;83;21082;-69
2021/05/21 06:08:34;;;;;;;1.42;0.93;;;;;;;14.33;70.32;97820.95;1705381;83;21081;-73
2021/05/21 06:11:02;;;;;;;1.00;0.60;;;;;;;14.42;66.64;97823.89;1705303;83;21096;-70
2021/05/21 06:13:29;;;;;;;2.22;0.98;;;;;;;14.55;65.25;97823.66;1705675;83;21085;-70
2021/05/21 06:15:56;;;;;;;1.62;1.10;;;;;;;14.66;63.66;97824.60;1705739;83;21062;-69
2021/05/21 06:18:23;;;;;;;1.30;0.90;;;;;;;14.71;61.94;97830.59;1708797;83;21085;-72
2021/05/21 06:20:50;;;;;;;1.42;0.95;;;;;;;14.68;62.02;97823.92;1703757;83;21062;-70
2021/05/21 06:23:17;;;;;;;1.05;0.95;;;;;;;14.66;60.44;97828.53;1703745;83;21721;-70
2021/05/21 06:28:19;;;;;;;2.20;0.80;;;;;;;14.94;64.94;97822.81;1706250;83;21293;-68
2021/05/21 06:30:46;;;;;;;0.70;0.57;;;;;;;15.10;64.28;97819.57;1705642;83;21038;-65
2021/05/21 06:33:13;;;;;;;1.75;0.90;;;;;;;15.19;62.17;97825.07;1705594;83;21105;-66
2021/05/21 06:35:40;;;;;;;6.75;1.12;;;;;;;15.32;59.68;97821.06;1705632;84;21066;-66
2021/05/21 06:38:07;;;;;;;1.98;1.00;;;;;;;15.41;59.17;97818.67;1705632;83;21053;-65
2021/05/21 06:40:34;;;;;;;2.58;1.02;;;;;;;15.51;59.86;97816.19;1705579;84;21598;-65
2021/05/21 06:43:08;;;;;;;1.20;0.62;;;;;;;15.63;62.03;97823.93;1705498;83;21617;-65
2021/05/21 06:45:36;;;;;;;1.25;0.80;;;;;;;15.65;58.06;97814.57;1705337;83;21091;-69
2021/05/21 06:48:04;;;;;;;1.67;0.50;;;;;;;15.72;57.23;97824.64;1705502;84;21077;-69
2021/05/21 06:50:31;;;;;;;1.10;0.90;;;;;;;15.93;62.39;97817.41;1705503;84;21105;-69
2021/05/21 06:52:58;;;;;;;0.90;0.70;;;;;;;15.93;53.27;97820.03;1705575;84;21117;-70
2021/05/21 06:55:25;;;;;;;1.87;0.90;;;;;;;16.09;54.80;97819.86;1705557;84;21534;-69
2021/05/21 06:57:53;;;;;;;0.88;0.70;;;;;;;16.22;54.71;97817.92;1705524;84;21069;-69
2021/05/21 07:00:21;;;;;;;1.65;0.90;;;;;;;16.40;56.99;97819.17;1705803;84;21064;-69
2021/05/21 07:02:47;;;;;;;2.98;0.82;;;;;;;16.27;53.53;97817.67;1705505;84;21164;-70
2021/05/21 07:05:15;;;;;;;1.10;0.90;;;;;;;16.56;53.86;97820.77;1686255;84;21065;-69
2021/05/21 07:07:43;;;;;;;1.62;0.47;;;;;;;16.48;53.02;97815.63;1683394;84;21108;-70
2021/05/21 07:10:12;;;;;;;1.55;0.80;;;;;;;16.79;55.83;97815.41;1662684;84;21037;-68
2021/05/21 07:12:39;;;;;;;0.80;0.60;;;;;;;16.99;57.01;97821.69;1666347;85;21123;-66
2021/05/21 07:15:07;;;;;;;1.00;0.70;;;;;;;17.12;53.52;97817.08;1664613;85;21084;-66
2021/05/21 07:17:34;;;;;;;0.80;0.50;;;;;;;17.34;57.31;97817.38;1684378;85;21069;-66
2021/05/21 07:20:03;;;;;;;0.82;0.70;;;;;;;17.43;57.98;97814.94;1682682;85;21557;-69
2021/05/21 07:22:29;;;;;;;0.82;0.65;;;;;;;17.53;56.65;97816.23;1684684;84;21049;-70
2021/05/21 07:24:56;;;;;;;1.15;0.68;;;;;;;17.67;58.46;97818.97;1684912;85;21543;-70
2021/05/21 07:27:23;;;;;;;0.82;0.60;;;;;;;17.78;54.50;97813.22;1684112;84;21065;-65
2021/05/21 07:29:50;;;;;;;0.88;0.70;;;;;;;17.80;53.03;97813.33;1684691;85;21594;-66
2021/05/21 07:32:17;;;;;;;0.53;0.47;;;;;;;17.76;49.42;97809.96;1685269;85;21085;-69
2021/05/21 07:34:44;;;;;;;0.57;0.53;;;;;;;17.90;54.13;97817.73;1685303;85;21077;-66
2021/05/21 07:37:11;;;;;;;1.25;0.70;;;;;;;18.01;53.75;97818.50;1681154;85;21179;-68
2021/05/21 07:39:39;;;;;;;0.88;0.70;;;;;;;18.14;55.43;97823.53;1684490;85;21065;-66
2021/05/21 07:42:06;;;;;;;4.05;0.50;;;;;;;18.23;55.08;97827.14;1684850;85;21164;-66
2021/05/21 07:44:33;;;;;;;1.42;0.80;;;;;;;18.26;48.62;97824.61;1684855;85;21046;-66
2021/05/21 07:47:00;;;;;;;0.72;0.57;;;;;;;18.29;50.45;97825.03;1683922;84;21604;-65
2021/05/21 07:49:27;;;;;;;1.17;0.72;;;;;;;18.16;46.56;97819.72;1684140;85;21105;-65
2021/05/21 07:51:55;;;;;;;0.90;0.65;;;;;;;18.02;48.05;97821.95;1684930;85;21231;-65
2021/05/21 07:54:22;;;;;;;2.67;0.60;;;;;;;18.16;51.01;97828.92;1684837;84;21069;-65
2021/05/21 07:56:49;;;;;;;0.72;0.65;;;;;;;18.35;52.23;97828.22;1684669;85;21144;-64
2021/05/21 07:59:16;;;;;;;0.40;0.40;;;;;;;18.62;53.59;97831.80;1684788;85;21553;-71
2021/05/21 08:01:43;;;;;;;0.78;0.60;;;;;;;18.69;45.69;97826.56;1684254;85;21046;-69
2021/05/21 08:04:11;;;;;;;1.20;0.85;;;;;;;18.91;53.28;97826.72;1684622;84;21021;-68
2021/05/21 08:06:41;;;;;;;0.78;0.70;;;;;;;18.90;48.46;97831.70;1684439;84;21055;-70
2021/05/21 08:09:09;;;;;;;1.25;0.70;;;;;;;18.87;51.42;97824.98;1684968;85;21037;-70
2021/05/21 08:11:37;;;;;;;1.20;0.80;;;;;;;18.93;48.34;97826.03;1684925;85;21133;-70
2021/05/21 08:14:08;;;;;;;0.62;0.55;;;;;;;18.96;46.00;97820.37;1685180;85;21164;-70
2021/05/21 08:16:34;;;;;;;2.55;1.07;;;;;;;19.10;45.99;97819.91;1685103;84;21021;-66
2021/05/21 08:19:01;;;;;;;1.67;1.00;;;;;;;18.95;43.44;97813.47;1683109;85;21085;-66
2021/05/21 08:21:28;;;;;;;0.68;0.60;;;;;;;18.79;49.89;97821.22;1683959;85;21109;-66
2021/05/21 08:23:56;;;;;;;1.57;0.53;;;;;;;19.02;48.65;97822.22;1684868;85;21148;-66
2021/05/21 08:26:25;;;;;;;1.17;0.80;;;;;;;19.23;49.01;97823.85;1684930;85;21211;-66
2021/05/21 08:28:56;;;;;;;1.07;0.95;;;;;;;19.36;46.65;97820.75;1684678;85;21082;-66
2021/05/21 08:31:24;;;;;;;0.60;0.60;;;;;;;19.45;44.40;97823.22;1684911;84;21041;-66
2021/05/21 08:33:52;;;;;;;3.00;0.68;;;;;;;19.46;43.87;97815.09;1684752;85;21113;-65
2021/05/21 08:36:24;;;;;;;0.90;0.57;;;;;;;19.50;41.92;97820.27;1684936;85;21224;-65
2021/05/21 08:38:50;;;;;;;1.10;0.75;;;;;;;19.72;45.26;97820.89;1683120;84;21042;-65
2021/05/21 08:41:24;;;;;;;1.30;0.82;;;;;;;19.60;45.46;97821.19;1684551;85;21189;-65
2021/05/21 08:43:53;;;;;;;0.90;0.68;;;;;;;19.66;43.82;97821.18;1683543;84;21113;-66
2021/05/21 08:46:23;;;;;;;1.27;0.60;;;;;;;19.87;44.30;97830.20;1684381;84;20991;-66
2021/05/21 08:48:50;;;;;;;0.68;0.50;;;;;;;19.93;44.59;97833.00;1684829;85;21069;-69
2021/05/21 08:51:18;;;;;;;2.65;0.50;;;;;;;19.84;43.75;97837.70;1684690;84;21131;-69
2021/05/21 08:53:45;;;;;;;1.10;0.60;;;;;;;19.93;45.20;97836.45;1684632;85;21094;-69
2021/05/21 08:56:12;;;;;;;0.95;0.50;;;;;;;20.10;44.92;97833.70;1684190;85;21045;-70
2021/05/21 08:58:43;;;;;;;0.60;0.50;;;;;;;20.21;45.82;97837.02;1684133;85;21057;-69
2021/05/21 09:01:08;;;;;;;1.02;0.80;;;;;;;20.31;47.10;97834.00;1684493;84;21043;-67
2021/05/21 09:03:35;;;;;;;1.70;0.90;;;;;;;20.36;40.26;97830.21;1684544;85;21045;-65
2021/05/21 09:06:22;;;;;;;1.17;0.60;;;;;;;20.45;41.88;97833.44;1684432;84;21080;-65
2021/05/21 09:08:55;;;;;;;0.40;0.40;;;;;;;20.54;42.71;97833.02;1684539;84;21651;-66
2021/05/21 09:11:42;;;;;;;0.75;0.53;;;;;;;20.48;46.53;97834.33;1684220;85;21029;-66
2021/05/21 09:14:21;;;;;;;;;;;;;;;20.22;47.11;97834.70;1687478;84;21117;-66
2021/05/21 09:16:48;;;;;;;0.55;0.55;;;;;;;20.12;40.29;97840.07;1684246;85;20175;-65
2021/05/21 09:19:18;;;;;;;0.62;0.50;;;;;;;20.12;40.79;97836.12;1685011;84;21061;-66
2021/05/21 09:22:00;;;;;;;0.50;0.40;;;;;;;20.39;43.51;97832.43;1685282;84;21541;-66
2021/05/21 09:24:42;;;;;;;0.68;0.47;;;;;;;20.67;43.12;97832.94;1685051;85;21071;-66
2021/05/21 09:27:11;;;;;;;0.72;0.50;;;;;;;20.92;45.39;97837.50;1684943;83;21086;-65
2021/05/21 09:29:53;;;;;;;0.60;0.50;;;;;;;20.97;44.42;97834.51;1684373;84;21069;-68
2021/05/21 09:32:28;;;;;;;0.65;0.57;;;;;;;20.72;37.91;97826.53;1684250;85;21136;-66
2021/05/21 09:35:12;;;;;;;0.40;0.30;;;;;;;21.12;44.85;97838.23;1684908;85;21592;-65
2021/05/21 09:37:51;;;;;;;1.30;0.70;;;;;;;21.37;43.15;97832.47;1684274;85;21619;-66
2021/05/21 09:40:27;;;;;;;3.02;0.70;;;;;;;21.22;37.76;97826.18;1684496;84;21009;-66
2021/05/21 09:43:05;;;;;;;1.55;0.85;;;;;;;21.74;40.34;97828.95;1684756;84;21061;-65
2021/05/21 09:45:40;;;;;;;0.50;0.50;;;;;;;21.97;42.76;97831.00;1682157;85;21557;-66
2021/05/21 09:48:09;;;;;;;0.50;0.50;;;;;;;21.90;44.38;97828.91;1685109;84;21092;-66
2021/05/21 09:50:43;;;;;;;1.00;0.65;;;;;;;21.36;37.79;97827.42;1684835;85;21026;-65
2021/05/21 09:53:14;;;;;;;0.95;0.55;;;;;;;21.64;39.70;97820.67;1683373;85;21069;-66
2021/05/21 09:55:57;;;;;;;0.47;0.45;;;;;;;22.21;44.13;97833.31;1683838;84;21505;-66
2021/05/21 09:58:33;;;;;;;2.17;1.25;;;;;;;22.65;44.46;97826.38;1684898;85;21136;-66
2021/05/21 10:01:13;;;;;;;1.20;0.75;;;;;;;23.11;37.17;97821.81;1684131;85;21568;-71
2021/05/21 10:03:44;;;;;;;0.70;0.60;;;;;;;22.83;33.56;97813.67;1684051;84;21121;-66
2021/05/21 10:06:12;;;;;;;0.40;0.40;;;;;;;23.51;40.02;97818.61;1683955;85;21092;-66
2021/05/21 10:08:40;;;;;;;0.50;0.50;;;;;;;24.15;41.17;97808.98;1684914;84;21646;-67
2021/05/21 10:11:08;;;;;;;0.53;0.42;;;;;;;24.50;39.28;97813.19;1684996;85;21097;-66
2021/05/21 10:13:37;;;;;;;0.50;0.50;;;;;;;24.84;41.79;97804.84;1684377;85;21672;-66
2021/05/21 10:16:05;;;;;;;0.50;0.50;;;;;;;25.13;40.42;97816.80;1684973;84;21069;-66
2021/05/21 10:18:35;;;;;;;0.50;0.50;;;;;;;25.37;31.60;97811.61;1684999;85;21092;-67
2021/05/21 10:21:04;;;;;;;0.57;0.50;;;;;;;25.14;29.96;97807.23;1685069;85;21088;-67
2021/05/21 10:23:36;;;;;;;0.72;0.50;;;;;;;25.06;32.06;97806.30;1684231;85;21628;-67
2021/05/21 10:26:27;;;;;;;0.50;0.50;;;;;;;25.47;32.85;97813.13;1684341;84;21099;-67
2021/05/21 10:28:57;;;;;;;0.55;0.40;;;;;;;25.67;32.56;97812.67;1677580;84;21116;-70
2021/05/21 10:31:24;;;;;;;1.65;1.15;;;;;;;25.35;28.92;97805.74;1684602;84;21133;-71
2021/05/21 10:34:15;;;;;;;0.45;0.40;;;;;;;25.09;31.17;97810.34;1684465;85;21065;-70
2021/05/21 10:37:32;;;;;;;0.90;0.60;;;;;;;25.34;31.75;97803.60;1653547;86;21124;-69
2021/05/21 10:40:32;;;;;;;2.20;0.60;;;;;;;25.58;31.83;97796.31;1679154;85;21058;-71
2021/05/21 10:43:17;;;;;;;1.25;0.88;;;;;;;25.79;33.39;97792.93;1683805;85;21557;-71
2021/05/21 10:45:54;;;;;;;1.00;0.60;;;;;;;26.03;31.36;97794.06;1660942;85;21037;-70
2021/05/21 10:48:26;;;;;;;1.00;0.60;;;;;;;26.33;30.69;97786.50;1684060;84;21061;-70
2021/05/21 10:51:14;;;;;;;0.45;0.45;;;;;;;26.70;27.16;97787.98;1684754;85;21030;-71
2021/05/21 10:53:46;;;;;;;0.78;0.40;;;;;;;27.23;32.48;97775.23;1683217;85;21026;-71
2021/05/21 10:56:15;;;;;;;1.57;0.80;;;;;;;27.69;27.39;97783.91;1684059;84;21029;-70
2021/05/21 10:58:44;;;;;;;0.80;0.70;;;;;;;27.53;24.61;97783.52;1684303;84;21128;-71
2021/05/21 11:01:19;;;;;;;1.20;0.70;;;;;;;27.08;25.57;97779.88;1683937;85;21025;-71
2021/05/21 11:04:03;;;;;;;1.10;0.70;;;;;;;27.83;24.57;97770.91;1682641;85;21683;-71
2021/05/21 11:06:46;;;;;;;0.57;0.50;;;;;;;27.72;26.71;97764.70;1684240;84;21573;-71
2021/05/21 11:09:17;;;;;;;1.07;0.60;;;;;;;28.53;31.29;97769.67;1684549;84;21212;-70
2021/05/21 11:12:07;;;;;;;0.60;0.60;;;;;;;28.90;30.27;97766.88;1663168;85;21541;-70
2021/05/21 11:14:44;;;;;;;1.42;0.40;;;;;;;28.46;27.76;97761.10;1684502;85;21071;-72
2021/05/21 11:17:23;;;;;;;1.70;0.65;;;;;;;28.20;24.94;97763.69;1683753;84;21538;-71
2021/05/21 11:19:59;;;;;;;3.05;0.98;;;;;;;27.06;25.08;97762.55;1684797;85;21062;-67
2021/05/21 11:22:39;;;;;;;0.40;0.40;;;;;;;27.75;27.11;97764.72;1684098;84;21157;-68
2021/05/21 11:25:16;;;;;;;1.07;0.80;;;;;;;28.35;26.31;97764.80;1684505;85;21068;-71
2021/05/21 11:27:43;;;;;;;2.10;1.12;;;;;;;27.66;24.30;97755.08;1682866;84;21072;-70
2021/05/21 11:30:15;;;;;;;2.27;1.12;;;;;;;26.51;25.57;97758.22;1662927;85;21586;-67
2021/05/21 11:32:42;;;;;;;0.68;0.68;;;;;;;26.94;25.66;97754.70;1685008;85;21026;-68
2021/05/21 11:35:12;;;;;;;0.70;0.70;;;;;;;27.42;24.56;97748.98;1683459;84;21050;-66
2021/05/21 11:37:41;;;;;;;2.33;0.57;;;;;;;28.06;29.30;97748.34;1684802;85;21073;-68
2021/05/21 11:40:10;;;;;;;0.80;0.57;;;;;;;28.08;25.07;97755.58;1684016;85;21085;-68
2021/05/21 11:42:37;;;;;;;1.00;0.42;;;;;;;28.23;24.35;97749.00;1684280;84;21045;-67
2021/05/21 11:45:07;;;;;;;0.82;0.65;;;;;;;28.01;24.11;97752.34;1665751;84;21148;-71
2021/05/21 11:47:36;;;;;;;0.42;0.40;;;;;;;28.16;23.87;97751.92;1665239;84;21097;-70